sensor_id;sensor_type;location;lat;lon;timestamp;P1;durP1;ratioP1;P2;durP2;ratioP2
30635;SDS011;17400;52.392;9.750;2022-12-18T00:00:02;21.80;;;11.77;;
30635;SDS011;17400;52.392;9.750;2022-12-18T00:02:32;16.30;;;9.87;;
30635;SDS011;17400;52.392;9.750;2022-12-18T00:05:00;19.90;;;10.07;;
30635;SDS011;17400;52.392;9.750;2022-12-18T00:07:27;23.53;;;11.97;;
30635;SDS011;17400;52.392;9.750;2022-12-18T00:09:55;21.97;;;11.93;;
30635;SDS011;17400;52.392;9.750;2022-12-18T00:12:24;21.37;;;9.73;;
30635;SDS011;17400;52.392;9.750;2022-12-18T00:14:52;21.13;;;11.23;;
30635;SDS011;17400;52.392;9.750;2022-12-18T00:17:19;27.90;;;13.00;;
30635;SDS011;17400;52.392;9.750;2022-12-18T00:19:47;17.70;;;10.57;;
30635;SDS011;17400;52.392;9.750;2022-12-18T00:22:15;24.00;;;10.60;;
30635;SDS011;17400;52.392;9.750;2022-12-18T00:24:43;18.90;;;10.03;;
30635;SDS011;17400;52.392;9.750;2022-12-18T00:27:10;16.57;;;9.47;;
30635;SDS011;17400;52.392;9.750;2022-12-18T00:29:39;18.40;;;10.47;;
30635;SDS011;17400;52.392;9.750;2022-12-18T00:32:07;18.70;;;10.47;;
30635;SDS011;17400;52.392;9.750;2022-12-18T00:34:35;18.60;;;9.53;;
30635;SDS011;17400;52.392;9.750;2022-12-18T00:37:04;18.90;;;9.00;;
30635;SDS011;17400;52.392;9.750;2022-12-18T00:39:31;19.20;;;10.70;;
30635;SDS011;17400;52.392;9.750;2022-12-18T00:41:59;26.97;;;12.63;;
30635;SDS011;17400;52.392;9.750;2022-12-18T00:44:48;16.43;;;9.90;;
30635;SDS011;17400;52.392;9.750;2022-12-18T00:47:16;20.63;;;8.90;;
30635;SDS011;17400;52.392;9.750;2022-12-18T00:49:44;14.70;;;8.67;;
30635;SDS011;17400;52.392;9.750;2022-12-18T00:52:12;18.17;;;10.43;;
30635;SDS011;17400;52.392;9.750;2022-12-18T00:54:40;13.87;;;8.40;;
30635;SDS011;17400;52.392;9.750;2022-12-18T00:57:07;21.83;;;9.77;;
30635;SDS011;17400;52.392;9.750;2022-12-18T00:59:35;15.43;;;9.17;;
30635;SDS011;17400;52.392;9.750;2022-12-18T01:02:04;15.73;;;9.00;;
30635;SDS011;17400;52.392;9.750;2022-12-18T01:04:32;14.37;;;8.37;;
30635;SDS011;17400;52.392;9.750;2022-12-18T01:07:00;17.13;;;9.53;;
30635;SDS011;17400;52.392;9.750;2022-12-18T01:09:28;21.07;;;11.70;;
30635;SDS011;17400;52.392;9.750;2022-12-18T01:11:56;20.10;;;9.63;;
30635;SDS011;17400;52.392;9.750;2022-12-18T01:14:24;21.07;;;9.23;;
30635;SDS011;17400;52.392;9.750;2022-12-18T01:16:52;18.43;;;9.90;;
30635;SDS011;17400;52.392;9.750;2022-12-18T01:19:21;19.63;;;10.40;;
30635;SDS011;17400;52.392;9.750;2022-12-18T01:21:48;17.57;;;10.00;;
30635;SDS011;17400;52.392;9.750;2022-12-18T01:24:16;18.37;;;9.23;;
30635;SDS011;17400;52.392;9.750;2022-12-18T01:26:44;21.50;;;10.50;;
30635;SDS011;17400;52.392;9.750;2022-12-18T01:29:11;14.57;;;9.53;;
30635;SDS011;17400;52.392;9.750;2022-12-18T01:31:39;16.30;;;9.50;;
30635;SDS011;17400;52.392;9.750;2022-12-18T01:34:08;14.23;;;8.77;;
30635;SDS011;17400;52.392;9.750;2022-12-18T01:36:38;17.40;;;9.63;;
30635;SDS011;17400;52.392;9.750;2022-12-18T01:39:07;16.40;;;9.60;;
30635;SDS011;17400;52.392;9.750;2022-12-18T01:41:38;18.50;;;8.90;;
30635;SDS011;17400;52.392;9.750;2022-12-18T01:47:22;19.03;;;9.77;;
30635;SDS011;17400;52.392;9.750;2022-12-18T01:49:53;13.60;;;9.57;;
30635;SDS011;17400;52.392;9.750;2022-12-18T01:52:25;17.67;;;9.20;;
30635;SDS011;17400;52.392;9.750;2022-12-18T01:54:55;22.47;;;9.60;;
30635;SDS011;17400;52.392;9.750;2022-12-18T01:57:23;19.10;;;9.10;;
30635;SDS011;17400;52.392;9.750;2022-12-18T01:59:53;16.33;;;9.47;;
30635;SDS011;17400;52.392;9.750;2022-12-18T02:02:26;21.07;;;9.17;;
30635;SDS011;17400;52.392;9.750;2022-12-18T02:04:55;16.03;;;9.20;;
30635;SDS011;17400;52.392;9.750;2022-12-18T02:07:25;19.77;;;9.47;;
30635;SDS011;17400;52.392;9.750;2022-12-18T02:10:04;18.20;;;10.10;;
30635;SDS011;17400;52.392;9.750;2022-12-18T02:12:36;14.67;;;9.67;;
30635;SDS011;17400;52.392;9.750;2022-12-18T02:15:11;15.93;;;8.77;;
30635;SDS011;17400;52.392;9.750;2022-12-18T02:17:45;17.83;;;9.97;;
30635;SDS011;17400;52.392;9.750;2022-12-18T02:20:18;18.70;;;9.13;;
30635;SDS011;17400;52.392;9.750;2022-12-18T02:22:55;14.63;;;8.53;;
30635;SDS011;17400;52.392;9.750;2022-12-18T02:25:36;18.87;;;8.43;;
30635;SDS011;17400;52.392;9.750;2022-12-18T02:28:15;16.43;;;9.00;;
30635;SDS011;17400;52.392;9.750;2022-12-18T02:30:47;18.63;;;9.93;;
30635;SDS011;17400;52.392;9.750;2022-12-18T02:33:18;22.73;;;10.07;;
30635;SDS011;17400;52.392;9.750;2022-12-18T02:35:48;17.40;;;9.77;;
30635;SDS011;17400;52.392;9.750;2022-12-18T02:38:17;15.50;;;9.20;;
30635;SDS011;17400;52.392;9.750;2022-12-18T02:40:45;19.13;;;10.20;;
30635;SDS011;17400;52.392;9.750;2022-12-18T02:43:15;15.77;;;8.70;;
30635;SDS011;17400;52.392;9.750;2022-12-18T02:45:46;15.87;;;7.90;;
30635;SDS011;17400;52.392;9.750;2022-12-18T02:48:15;20.17;;;9.83;;
30635;SDS011;17400;52.392;9.750;2022-12-18T02:50:45;13.33;;;8.47;;
30635;SDS011;17400;52.392;9.750;2022-12-18T02:53:20;14.47;;;9.33;;
30635;SDS011;17400;52.392;9.750;2022-12-18T02:55:57;17.20;;;8.43;;
30635;SDS011;17400;52.392;9.750;2022-12-18T02:58:33;16.57;;;8.80;;
30635;SDS011;17400;52.392;9.750;2022-12-18T03:01:09;17.20;;;9.37;;
30635;SDS011;17400;52.392;9.750;2022-12-18T03:03:41;14.37;;;8.13;;
30635;SDS011;17400;52.392;9.750;2022-12-18T03:06:17;18.10;;;8.67;;
30635;SDS011;17400;52.392;9.750;2022-12-18T03:08:51;17.43;;;10.03;;
30635;SDS011;17400;52.392;9.750;2022-12-18T03:11:24;16.33;;;10.23;;
30635;SDS011;17400;52.392;9.750;2022-12-18T03:14:09;20.10;;;10.70;;
30635;SDS011;17400;52.392;9.750;2022-12-18T03:16:41;21.67;;;10.43;;
30635;SDS011;17400;52.392;9.750;2022-12-18T03:19:12;15.73;;;9.27;;
30635;SDS011;17400;52.392;9.750;2022-12-18T03:21:45;17.50;;;9.23;;
30635;SDS011;17400;52.392;9.750;2022-12-18T03:24:17;15.20;;;8.67;;
30635;SDS011;17400;52.392;9.750;2022-12-18T03:26:49;15.87;;;8.73;;
30635;SDS011;17400;52.392;9.750;2022-12-18T03:29:22;12.40;;;7.20;;
30635;SDS011;17400;52.392;9.750;2022-12-18T03:31:55;15.63;;;8.67;;
30635;SDS011;17400;52.392;9.750;2022-12-18T03:34:33;14.73;;;9.17;;
30635;SDS011;17400;52.392;9.750;2022-12-18T03:37:03;14.27;;;10.07;;
30635;SDS011;17400;52.392;9.750;2022-12-18T03:39:32;17.43;;;9.13;;
30635;SDS011;17400;52.392;9.750;2022-12-18T03:42:01;13.63;;;8.63;;
30635;SDS011;17400;52.392;9.750;2022-12-18T03:44:36;19.67;;;8.90;;
30635;SDS011;17400;52.392;9.750;2022-12-18T03:47:11;20.20;;;10.43;;
30635;SDS011;17400;52.392;9.750;2022-12-18T03:49:44;19.30;;;9.60;;
30635;SDS011;17400;52.392;9.750;2022-12-18T03:52:18;20.93;;;10.63;;
30635;SDS011;17400;52.392;9.750;2022-12-18T03:54:50;18.60;;;9.67;;
30635;SDS011;17400;52.392;9.750;2022-12-18T03:57:19;21.13;;;10.40;;
30635;SDS011;17400;52.392;9.750;2022-12-18T03:59:50;18.60;;;10.43;;
30635;SDS011;17400;52.392;9.750;2022-12-18T04:02:22;17.90;;;9.37;;
30635;SDS011;17400;52.392;9.750;2022-12-18T04:04:52;17.40;;;10.10;;
30635;SDS011;17400;52.392;9.750;2022-12-18T04:07:24;16.57;;;8.77;;
30635;SDS011;17400;52.392;9.750;2022-12-18T04:09:53;15.30;;;9.83;;
30635;SDS011;17400;52.392;9.750;2022-12-18T04:12:23;16.93;;;9.63;;
30635;SDS011;17400;52.392;9.750;2022-12-18T04:14:53;16.93;;;10.80;;
30635;SDS011;17400;52.392;9.750;2022-12-18T04:17:21;15.73;;;9.83;;
30635;SDS011;17400;52.392;9.750;2022-12-18T04:19:50;17.77;;;10.03;;
30635;SDS011;17400;52.392;9.750;2022-12-18T04:22:18;20.53;;;9.63;;
30635;SDS011;17400;52.392;9.750;2022-12-18T04:24:45;16.73;;;10.03;;
30635;SDS011;17400;52.392;9.750;2022-12-18T04:27:14;20.47;;;9.80;;
30635;SDS011;17400;52.392;9.750;2022-12-18T04:29:42;24.57;;;10.77;;
30635;SDS011;17400;52.392;9.750;2022-12-18T04:32:11;19.80;;;10.97;;
30635;SDS011;17400;52.392;9.750;2022-12-18T04:34:39;18.50;;;10.33;;
30635;SDS011;17400;52.392;9.750;2022-12-18T04:37:06;13.93;;;8.67;;
30635;SDS011;17400;52.392;9.750;2022-12-18T04:39:34;13.57;;;8.03;;
30635;SDS011;17400;52.392;9.750;2022-12-18T04:42:02;18.63;;;9.37;;
30635;SDS011;17400;52.392;9.750;2022-12-18T04:44:30;21.13;;;10.00;;
30635;SDS011;17400;52.392;9.750;2022-12-18T04:46:57;18.10;;;9.20;;
30635;SDS011;17400;52.392;9.750;2022-12-18T04:49:26;18.80;;;11.30;;
30635;SDS011;17400;52.392;9.750;2022-12-18T04:51:54;19.97;;;9.70;;
30635;SDS011;17400;52.392;9.750;2022-12-18T04:54:22;18.40;;;9.27;;
30635;SDS011;17400;52.392;9.750;2022-12-18T04:56:49;20.73;;;9.80;;
30635;SDS011;17400;52.392;9.750;2022-12-18T04:59:17;18.97;;;9.87;;
30635;SDS011;17400;52.392;9.750;2022-12-18T05:01:45;19.10;;;10.30;;
30635;SDS011;17400;52.392;9.750;2022-12-18T05:04:13;19.40;;;11.00;;
30635;SDS011;17400;52.392;9.750;2022-12-18T05:06:42;15.23;;;8.97;;
30635;SDS011;17400;52.392;9.750;2022-12-18T05:09:10;17.03;;;8.63;;
30635;SDS011;17400;52.392;9.750;2022-12-18T05:11:37;17.47;;;8.10;;
30635;SDS011;17400;52.392;9.750;2022-12-18T05:14:05;12.40;;;7.80;;
30635;SDS011;17400;52.392;9.750;2022-12-18T05:16:33;13.73;;;7.73;;
30635;SDS011;17400;52.392;9.750;2022-12-18T05:19:01;11.80;;;8.73;;
30635;SDS011;17400;52.392;9.750;2022-12-18T05:21:28;16.10;;;9.23;;
30635;SDS011;17400;52.392;9.750;2022-12-18T05:23:57;15.97;;;8.53;;
30635;SDS011;17400;52.392;9.750;2022-12-18T05:26:25;17.37;;;9.83;;
30635;SDS011;17400;52.392;9.750;2022-12-18T05:28:53;13.00;;;8.03;;
30635;SDS011;17400;52.392;9.750;2022-12-18T05:31:23;17.97;;;8.87;;
30635;SDS011;17400;52.392;9.750;2022-12-18T05:33:51;16.97;;;8.80;;
30635;SDS011;17400;52.392;9.750;2022-12-18T05:36:19;15.67;;;8.20;;
30635;SDS011;17400;52.392;9.750;2022-12-18T05:38:46;13.60;;;8.47;;
30635;SDS011;17400;52.392;9.750;2022-12-18T05:41:15;21.67;;;10.27;;
30635;SDS011;17400;52.392;9.750;2022-12-18T05:43:43;11.30;;;7.77;;
30635;SDS011;17400;52.392;9.750;2022-12-18T05:46:12;14.43;;;8.50;;
30635;SDS011;17400;52.392;9.750;2022-12-18T05:48:40;15.37;;;8.80;;
30635;SDS011;17400;52.392;9.750;2022-12-18T05:51:09;16.93;;;10.43;;
30635;SDS011;17400;52.392;9.750;2022-12-18T05:53:38;16.87;;;9.47;;
30635;SDS011;17400;52.392;9.750;2022-12-18T05:56:07;14.10;;;7.57;;
30635;SDS011;17400;52.392;9.750;2022-12-18T05:58:38;15.07;;;8.50;;
30635;SDS011;17400;52.392;9.750;2022-12-18T06:01:07;14.47;;;8.77;;
30635;SDS011;17400;52.392;9.750;2022-12-18T06:03:37;12.70;;;8.13;;
30635;SDS011;17400;52.392;9.750;2022-12-18T06:06:12;15.97;;;8.33;;
30635;SDS011;17400;52.392;9.750;2022-12-18T06:08:40;14.47;;;8.60;;
30635;SDS011;17400;52.392;9.750;2022-12-18T06:11:12;16.27;;;9.37;;
30635;SDS011;17400;52.392;9.750;2022-12-18T06:13:41;18.77;;;10.97;;
30635;SDS011;17400;52.392;9.750;2022-12-18T06:16:09;13.07;;;7.83;;
30635;SDS011;17400;52.392;9.750;2022-12-18T06:18:37;15.43;;;8.47;;
30635;SDS011;17400;52.392;9.750;2022-12-18T06:21:05;15.07;;;7.97;;
30635;SDS011;17400;52.392;9.750;2022-12-18T06:23:33;19.13;;;8.03;;
30635;SDS011;17400;52.392;9.750;2022-12-18T06:26:03;16.67;;;9.67;;
30635;SDS011;17400;52.392;9.750;2022-12-18T06:28:32;17.63;;;9.40;;
30635;SDS011;17400;52.392;9.750;2022-12-18T06:31:01;15.27;;;7.47;;
30635;SDS011;17400;52.392;9.750;2022-12-18T06:33:30;19.57;;;10.20;;
30635;SDS011;17400;52.392;9.750;2022-12-18T06:35:59;18.70;;;9.87;;
30635;SDS011;17400;52.392;9.750;2022-12-18T06:38:28;13.50;;;8.40;;
30635;SDS011;17400;52.392;9.750;2022-12-18T06:40:57;17.10;;;9.33;;
30635;SDS011;17400;52.392;9.750;2022-12-18T06:43:24;15.60;;;8.07;;
30635;SDS011;17400;52.392;9.750;2022-12-18T06:45:57;18.80;;;9.70;;
30635;SDS011;17400;52.392;9.750;2022-12-18T06:48:27;17.47;;;8.40;;
30635;SDS011;17400;52.392;9.750;2022-12-18T06:50:55;13.57;;;8.40;;
30635;SDS011;17400;52.392;9.750;2022-12-18T06:53:23;16.30;;;8.63;;
30635;SDS011;17400;52.392;9.750;2022-12-18T06:55:51;16.37;;;9.90;;
30635;SDS011;17400;52.392;9.750;2022-12-18T06:58:19;17.20;;;8.47;;
30635;SDS011;17400;52.392;9.750;2022-12-18T07:00:46;13.27;;;7.30;;
30635;SDS011;17400;52.392;9.750;2022-12-18T07:03:14;13.20;;;8.00;;
30635;SDS011;17400;52.392;9.750;2022-12-18T07:05:43;16.20;;;8.77;;
30635;SDS011;17400;52.392;9.750;2022-12-18T07:08:11;15.50;;;7.47;;
30635;SDS011;17400;52.392;9.750;2022-12-18T07:10:42;18.47;;;7.40;;
30635;SDS011;17400;52.392;9.750;2022-12-18T07:13:18;14.60;;;8.53;;
30635;SDS011;17400;52.392;9.750;2022-12-18T07:15:46;14.93;;;7.87;;
30635;SDS011;17400;52.392;9.750;2022-12-18T07:18:13;14.80;;;8.90;;
30635;SDS011;17400;52.392;9.750;2022-12-18T07:20:41;13.43;;;8.47;;
30635;SDS011;17400;52.392;9.750;2022-12-18T07:23:10;13.30;;;7.77;;
30635;SDS011;17400;52.392;9.750;2022-12-18T07:25:38;18.27;;;9.63;;
30635;SDS011;17400;52.392;9.750;2022-12-18T07:28:06;19.93;;;8.70;;
30635;SDS011;17400;52.392;9.750;2022-12-18T07:30:41;15.80;;;9.37;;
30635;SDS011;17400;52.392;9.750;2022-12-18T07:33:08;13.87;;;8.63;;
30635;SDS011;17400;52.392;9.750;2022-12-18T07:35:36;16.27;;;8.87;;
30635;SDS011;17400;52.392;9.750;2022-12-18T07:38:04;20.17;;;9.03;;
30635;SDS011;17400;52.392;9.750;2022-12-18T07:40:33;15.27;;;8.30;;
30635;SDS011;17400;52.392;9.750;2022-12-18T07:43:01;12.77;;;7.40;;
30635;SDS011;17400;52.392;9.750;2022-12-18T07:45:29;14.87;;;8.10;;
30635;SDS011;17400;52.392;9.750;2022-12-18T07:47:57;11.50;;;6.60;;
30635;SDS011;17400;52.392;9.750;2022-12-18T07:50:25;15.03;;;8.60;;
30635;SDS011;17400;52.392;9.750;2022-12-18T07:52:53;16.97;;;8.77;;
30635;SDS011;17400;52.392;9.750;2022-12-18T07:55:21;17.00;;;8.57;;
30635;SDS011;17400;52.392;9.750;2022-12-18T07:57:50;16.20;;;7.90;;
30635;SDS011;17400;52.392;9.750;2022-12-18T08:00:24;14.97;;;7.90;;
30635;SDS011;17400;52.392;9.750;2022-12-18T08:02:52;15.90;;;7.77;;
30635;SDS011;17400;52.392;9.750;2022-12-18T08:05:20;13.90;;;7.93;;
30635;SDS011;17400;52.392;9.750;2022-12-18T08:07:48;9.90;;;6.53;;
30635;SDS011;17400;52.392;9.750;2022-12-18T08:10:18;14.23;;;6.83;;
30635;SDS011;17400;52.392;9.750;2022-12-18T08:12:48;25.90;;;9.00;;
30635;SDS011;17400;52.392;9.750;2022-12-18T08:15:19;15.87;;;8.03;;
30635;SDS011;17400;52.392;9.750;2022-12-18T08:17:46;14.40;;;8.13;;
30635;SDS011;17400;52.392;9.750;2022-12-18T08:20:16;17.30;;;8.10;;
30635;SDS011;17400;52.392;9.750;2022-12-18T08:22:44;14.13;;;7.73;;
30635;SDS011;17400;52.392;9.750;2022-12-18T08:25:12;13.67;;;7.67;;
30635;SDS011;17400;52.392;9.750;2022-12-18T08:27:40;20.57;;;10.10;;
30635;SDS011;17400;52.392;9.750;2022-12-18T08:30:10;27.67;;;11.37;;
30635;SDS011;17400;52.392;9.750;2022-12-18T08:32:38;19.93;;;9.83;;
30635;SDS011;17400;52.392;9.750;2022-12-18T08:35:06;26.80;;;11.00;;
30635;SDS011;17400;52.392;9.750;2022-12-18T08:37:35;21.40;;;10.00;;
30635;SDS011;17400;52.392;9.750;2022-12-18T08:40:04;18.67;;;7.63;;
30635;SDS011;17400;52.392;9.750;2022-12-18T08:42:32;20.63;;;9.33;;
30635;SDS011;17400;52.392;9.750;2022-12-18T08:45:19;23.23;;;12.10;;
30635;SDS011;17400;52.392;9.750;2022-12-18T08:47:47;15.40;;;8.23;;
30635;SDS011;17400;52.392;9.750;2022-12-18T08:50:15;15.57;;;8.10;;
30635;SDS011;17400;52.392;9.750;2022-12-18T08:52:43;16.53;;;8.80;;
30635;SDS011;17400;52.392;9.750;2022-12-18T08:55:10;15.20;;;8.60;;
30635;SDS011;17400;52.392;9.750;2022-12-18T08:57:38;15.57;;;7.70;;
30635;SDS011;17400;52.392;9.750;2022-12-18T09:00:06;12.60;;;6.90;;
30635;SDS011;17400;52.392;9.750;2022-12-18T09:02:36;16.23;;;6.87;;
30635;SDS011;17400;52.392;9.750;2022-12-18T09:05:05;9.43;;;5.87;;
30635;SDS011;17400;52.392;9.750;2022-12-18T09:07:33;13.20;;;7.57;;
30635;SDS011;17400;52.392;9.750;2022-12-18T09:10:00;13.67;;;7.47;;
30635;SDS011;17400;52.392;9.750;2022-12-18T09:12:28;15.93;;;8.67;;
30635;SDS011;17400;52.392;9.750;2022-12-18T09:14:56;14.70;;;8.10;;
30635;SDS011;17400;52.392;9.750;2022-12-18T09:17:23;15.00;;;8.80;;
30635;SDS011;17400;52.392;9.750;2022-12-18T09:19:52;20.07;;;10.33;;
30635;SDS011;17400;52.392;9.750;2022-12-18T09:22:20;18.50;;;8.77;;
30635;SDS011;17400;52.392;9.750;2022-12-18T09:24:48;18.33;;;9.30;;
30635;SDS011;17400;52.392;9.750;2022-12-18T09:27:16;13.03;;;8.27;;
30635;SDS011;17400;52.392;9.750;2022-12-18T09:29:43;17.63;;;8.83;;
30635;SDS011;17400;52.392;9.750;2022-12-18T09:32:11;16.77;;;10.47;;
30635;SDS011;17400;52.392;9.750;2022-12-18T09:34:47;17.53;;;9.37;;
30635;SDS011;17400;52.392;9.750;2022-12-18T09:37:16;16.33;;;7.87;;
30635;SDS011;17400;52.392;9.750;2022-12-18T09:39:44;11.37;;;6.97;;
30635;SDS011;17400;52.392;9.750;2022-12-18T09:42:15;11.30;;;7.00;;
30635;SDS011;17400;52.392;9.750;2022-12-18T09:44:48;13.40;;;6.97;;
30635;SDS011;17400;52.392;9.750;2022-12-18T09:47:19;10.37;;;6.53;;
30635;SDS011;17400;52.392;9.750;2022-12-18T09:49:52;13.07;;;7.37;;
30635;SDS011;17400;52.392;9.750;2022-12-18T09:52:26;12.83;;;7.20;;
30635;SDS011;17400;52.392;9.750;2022-12-18T09:55:00;10.77;;;7.03;;
30635;SDS011;17400;52.392;9.750;2022-12-18T09:57:33;20.13;;;8.93;;
30635;SDS011;17400;52.392;9.750;2022-12-18T10:00:15;14.57;;;7.10;;
30635;SDS011;17400;52.392;9.750;2022-12-18T10:02:45;11.63;;;7.07;;
30635;SDS011;17400;52.392;9.750;2022-12-18T10:05:15;11.23;;;5.93;;
30635;SDS011;17400;52.392;9.750;2022-12-18T10:07:49;15.40;;;9.00;;
30635;SDS011;17400;52.392;9.750;2022-12-18T10:10:33;15.83;;;7.67;;
30635;SDS011;17400;52.392;9.750;2022-12-18T10:13:08;15.67;;;8.30;;
30635;SDS011;17400;52.392;9.750;2022-12-18T10:15:48;11.63;;;6.33;;
30635;SDS011;17400;52.392;9.750;2022-12-18T10:18:29;14.10;;;7.57;;
30635;SDS011;17400;52.392;9.750;2022-12-18T10:21:10;12.20;;;6.47;;
30635;SDS011;17400;52.392;9.750;2022-12-18T10:23:43;12.93;;;7.60;;
30635;SDS011;17400;52.392;9.750;2022-12-18T10:26:17;15.50;;;7.77;;
30635;SDS011;17400;52.392;9.750;2022-12-18T10:28:47;14.10;;;6.83;;
30635;SDS011;17400;52.392;9.750;2022-12-18T10:31:16;17.83;;;8.67;;
30635;SDS011;17400;52.392;9.750;2022-12-18T10:33:45;13.97;;;7.23;;
30635;SDS011;17400;52.392;9.750;2022-12-18T10:36:13;14.03;;;7.20;;
30635;SDS011;17400;52.392;9.750;2022-12-18T10:38:42;15.43;;;7.33;;
30635;SDS011;17400;52.392;9.750;2022-12-18T10:41:23;19.23;;;10.03;;
30635;SDS011;17400;52.392;9.750;2022-12-18T10:44:11;16.33;;;8.53;;
30635;SDS011;17400;52.392;9.750;2022-12-18T10:46:43;12.93;;;7.70;;
30635;SDS011;17400;52.392;9.750;2022-12-18T10:49:21;10.23;;;8.13;;
30635;SDS011;17400;52.392;9.750;2022-12-18T10:51:52;10.90;;;6.27;;
30635;SDS011;17400;52.392;9.750;2022-12-18T10:54:34;12.50;;;6.97;;
30635;SDS011;17400;52.392;9.750;2022-12-18T10:57:16;9.43;;;6.47;;
30635;SDS011;17400;52.392;9.750;2022-12-18T10:59:52;12.50;;;6.37;;
30635;SDS011;17400;52.392;9.750;2022-12-18T11:02:24;12.30;;;8.03;;
30635;SDS011;17400;52.392;9.750;2022-12-18T11:04:55;13.73;;;7.33;;
30635;SDS011;17400;52.392;9.750;2022-12-18T11:07:23;11.77;;;7.07;;
30635;SDS011;17400;52.392;9.750;2022-12-18T11:10:00;14.53;;;8.27;;
30635;SDS011;17400;52.392;9.750;2022-12-18T11:12:28;11.70;;;7.33;;
30635;SDS011;17400;52.392;9.750;2022-12-18T11:14:56;13.03;;;7.20;;
30635;SDS011;17400;52.392;9.750;2022-12-18T11:17:28;11.93;;;5.80;;
30635;SDS011;17400;52.392;9.750;2022-12-18T11:19:57;11.77;;;6.43;;
30635;SDS011;17400;52.392;9.750;2022-12-18T11:22:27;14.10;;;7.10;;
30635;SDS011;17400;52.392;9.750;2022-12-18T11:24:57;8.53;;;5.27;;
30635;SDS011;17400;52.392;9.750;2022-12-18T11:27:49;14.73;;;6.90;;
30635;SDS011;17400;52.392;9.750;2022-12-18T11:30:22;13.17;;;6.53;;
30635;SDS011;17400;52.392;9.750;2022-12-18T11:32:53;17.07;;;8.10;;
30635;SDS011;17400;52.392;9.750;2022-12-18T11:35:30;12.00;;;7.20;;
30635;SDS011;17400;52.392;9.750;2022-12-18T11:38:05;14.13;;;7.77;;
30635;SDS011;17400;52.392;9.750;2022-12-18T11:40:47;11.17;;;6.70;;
30635;SDS011;17400;52.392;9.750;2022-12-18T11:43:20;12.83;;;6.97;;
30635;SDS011;17400;52.392;9.750;2022-12-18T11:45:54;15.20;;;7.67;;
30635;SDS011;17400;52.392;9.750;2022-12-18T11:48:26;15.07;;;7.53;;
30635;SDS011;17400;52.392;9.750;2022-12-18T11:50:56;11.20;;;6.67;;
30635;SDS011;17400;52.392;9.750;2022-12-18T11:53:27;9.57;;;5.33;;
30635;SDS011;17400;52.392;9.750;2022-12-18T11:56:07;9.67;;;6.43;;
30635;SDS011;17400;52.392;9.750;2022-12-18T11:58:54;14.63;;;6.73;;
30635;SDS011;17400;52.392;9.750;2022-12-18T12:01:37;12.77;;;6.27;;
30635;SDS011;17400;52.392;9.750;2022-12-18T12:04:30;9.50;;;5.27;;
30635;SDS011;17400;52.392;9.750;2022-12-18T12:07:12;13.73;;;5.80;;
30635;SDS011;17400;52.392;9.750;2022-12-18T12:09:55;15.43;;;6.07;;
30635;SDS011;17400;52.392;9.750;2022-12-18T12:12:35;13.50;;;7.00;;
30635;SDS011;17400;52.392;9.750;2022-12-18T12:15:18;15.23;;;7.80;;
30635;SDS011;17400;52.392;9.750;2022-12-18T12:17:56;17.27;;;7.87;;
30635;SDS011;17400;52.392;9.750;2022-12-18T12:20:39;12.77;;;6.73;;
30635;SDS011;17400;52.392;9.750;2022-12-18T12:23:19;12.23;;;6.83;;
30635;SDS011;17400;52.392;9.750;2022-12-18T12:25:55;14.57;;;9.13;;
30635;SDS011;17400;52.392;9.750;2022-12-18T12:28:36;12.57;;;7.27;;
30635;SDS011;17400;52.392;9.750;2022-12-18T12:31:21;11.33;;;8.43;;
30635;SDS011;17400;52.392;9.750;2022-12-18T12:33:59;16.67;;;7.63;;
30635;SDS011;17400;52.392;9.750;2022-12-18T12:36:37;16.17;;;6.13;;
30635;SDS011;17400;52.392;9.750;2022-12-18T12:39:16;13.00;;;6.83;;
30635;SDS011;17400;52.392;9.750;2022-12-18T12:41:48;15.80;;;6.80;;
30635;SDS011;17400;52.392;9.750;2022-12-18T12:44:38;11.93;;;6.80;;
30635;SDS011;17400;52.392;9.750;2022-12-18T12:47:11;12.17;;;6.63;;
30635;SDS011;17400;52.392;9.750;2022-12-18T12:49:43;10.23;;;5.67;;
30635;SDS011;17400;52.392;9.750;2022-12-18T12:52:17;14.17;;;7.40;;
30635;SDS011;17400;52.392;9.750;2022-12-18T12:54:54;21.07;;;7.43;;
30635;SDS011;17400;52.392;9.750;2022-12-18T12:57:24;16.37;;;7.97;;
30635;SDS011;17400;52.392;9.750;2022-12-18T13:00:00;13.67;;;7.47;;
30635;SDS011;17400;52.392;9.750;2022-12-18T13:02:33;12.37;;;5.17;;
30635;SDS011;17400;52.392;9.750;2022-12-18T13:05:09;22.47;;;10.10;;
30635;SDS011;17400;52.392;9.750;2022-12-18T13:07:48;17.63;;;7.03;;
30635;SDS011;17400;52.392;9.750;2022-12-18T13:10:23;17.27;;;6.87;;
30635;SDS011;17400;52.392;9.750;2022-12-18T13:13:00;11.83;;;7.07;;
30635;SDS011;17400;52.392;9.750;2022-12-18T13:15:32;18.20;;;8.20;;
30635;SDS011;17400;52.392;9.750;2022-12-18T13:18:10;19.07;;;9.97;;
30635;SDS011;17400;52.392;9.750;2022-12-18T13:20:42;10.07;;;5.57;;
30635;SDS011;17400;52.392;9.750;2022-12-18T13:23:29;15.00;;;7.57;;
30635;SDS011;17400;52.392;9.750;2022-12-18T13:28:58;17.23;;;8.07;;
30635;SDS011;17400;52.392;9.750;2022-12-18T13:34:46;16.00;;;9.47;;
30635;SDS011;17400;52.392;9.750;2022-12-18T13:43:27;14.37;;;8.33;;
30635;SDS011;17400;52.392;9.750;2022-12-18T13:46:05;17.13;;;9.30;;
30635;SDS011;17400;52.392;9.750;2022-12-18T13:48:49;23.70;;;9.87;;
30635;SDS011;17400;52.392;9.750;2022-12-18T13:51:31;18.80;;;9.03;;
30635;SDS011;17400;52.392;9.750;2022-12-18T13:54:01;26.53;;;10.97;;
30635;SDS011;17400;52.392;9.750;2022-12-18T13:56:33;24.67;;;10.50;;
30635;SDS011;17400;52.392;9.750;2022-12-18T13:59:15;21.63;;;11.70;;
30635;SDS011;17400;52.392;9.750;2022-12-18T14:01:51;19.60;;;12.00;;
30635;SDS011;17400;52.392;9.750;2022-12-18T14:04:22;27.37;;;12.60;;
30635;SDS011;17400;52.392;9.750;2022-12-18T14:06:54;22.80;;;12.70;;
30635;SDS011;17400;52.392;9.750;2022-12-18T14:09:26;22.60;;;12.70;;
30635;SDS011;17400;52.392;9.750;2022-12-18T14:11:57;24.57;;;12.43;;
30635;SDS011;17400;52.392;9.750;2022-12-18T14:14:42;21.87;;;11.90;;
30635;SDS011;17400;52.392;9.750;2022-12-18T14:17:13;26.50;;;13.60;;
30635;SDS011;17400;52.392;9.750;2022-12-18T14:19:44;25.13;;;11.83;;
30635;SDS011;17400;52.392;9.750;2022-12-18T14:22:18;20.60;;;12.13;;
30635;SDS011;17400;52.392;9.750;2022-12-18T14:25:04;26.17;;;11.70;;
30635;SDS011;17400;52.392;9.750;2022-12-18T14:27:41;20.07;;;10.80;;
30635;SDS011;17400;52.392;9.750;2022-12-18T14:30:28;28.07;;;11.87;;
30635;SDS011;17400;52.392;9.750;2022-12-18T14:33:01;28.80;;;13.70;;
30635;SDS011;17400;52.392;9.750;2022-12-18T14:35:31;23.90;;;13.53;;
30635;SDS011;17400;52.392;9.750;2022-12-18T14:38:21;29.57;;;13.70;;
30635;SDS011;17400;52.392;9.750;2022-12-18T14:40:57;26.40;;;13.13;;
30635;SDS011;17400;52.392;9.750;2022-12-18T14:43:27;22.03;;;13.70;;
30635;SDS011;17400;52.392;9.750;2022-12-18T14:45:56;25.97;;;14.07;;
30635;SDS011;17400;52.392;9.750;2022-12-18T14:48:32;23.63;;;14.43;;
30635;SDS011;17400;52.392;9.750;2022-12-18T14:51:03;28.47;;;14.97;;
30635;SDS011;17400;52.392;9.750;2022-12-18T14:53:36;26.80;;;15.30;;
30635;SDS011;17400;52.392;9.750;2022-12-18T14:56:13;20.93;;;12.33;;
30635;SDS011;17400;52.392;9.750;2022-12-18T14:58:45;30.77;;;13.80;;
30635;SDS011;17400;52.392;9.750;2022-12-18T15:01:18;30.13;;;13.43;;
30635;SDS011;17400;52.392;9.750;2022-12-18T15:03:53;30.07;;;15.67;;
30635;SDS011;17400;52.392;9.750;2022-12-18T15:06:26;30.40;;;14.93;;
30635;SDS011;17400;52.392;9.750;2022-12-18T15:09:02;27.83;;;14.27;;
30635;SDS011;17400;52.392;9.750;2022-12-18T15:11:32;23.40;;;12.87;;